createdAt,value
2022-10-30T00:00:35.322Z,99.90
2022-10-30T00:03:04.814Z,99.90
2022-10-30T00:05:32.855Z,99.90
2022-10-30T00:08:01.208Z,99.90
2022-10-30T00:10:29.445Z,99.90
2022-10-30T00:12:57.975Z,99.90
2022-10-30T00:15:25.921Z,99.90
2022-10-30T00:17:54.884Z,99.90
2022-10-30T00:20:24.460Z,99.90
2022-10-30T00:22:52.643Z,99.90
2022-10-30T00:25:20.719Z,99.90
2022-10-30T00:27:48.678Z,99.90
2022-10-30T00:30:17.379Z,99.90
2022-10-30T00:32:45.331Z,99.90
2022-10-30T00:35:13.385Z,99.90
2022-10-30T00:37:42.724Z,99.90
2022-10-30T00:40:16.935Z,99.90
2022-10-30T00:42:45.502Z,99.90
2022-10-30T00:45:15.085Z,99.90
2022-10-30T00:47:46.214Z,99.90
2022-10-30T00:50:17.856Z,99.90
2022-10-30T00:52:52.169Z,99.90
2022-10-30T00:55:23.712Z,99.90
2022-10-30T00:57:53.169Z,99.90
2022-10-30T01:00:23.254Z,99.90
2022-10-30T01:02:52.807Z,99.90
2022-10-30T01:05:26.073Z,99.90
2022-10-30T01:07:55.984Z,99.90
2022-10-30T01:10:24.661Z,99.90
2022-10-30T01:12:57.007Z,99.90
2022-10-30T01:15:31.446Z,99.90
2022-10-30T01:18:10.066Z,99.90
2022-10-30T01:20:53.127Z,99.90
2022-10-30T01:23:36.498Z,99.90
2022-10-30T01:26:13.073Z,99.90
2022-10-30T01:28:58.476Z,99.90
2022-10-30T01:31:42.116Z,99.90
2022-10-30T01:34:18.063Z,99.90
2022-10-30T01:36:52.936Z,99.90
2022-10-30T01:39:25.324Z,99.90
2022-10-30T01:41:53.327Z,99.90
2022-10-30T01:44:26.386Z,99.90
2022-10-30T01:47:15.805Z,99.90
2022-10-30T01:50:10.595Z,99.90
2022-10-30T01:52:46.336Z,99.90
2022-10-30T01:55:24.467Z,99.90
2022-10-30T01:57:59.276Z,99.90
2022-10-30T02:00:28.532Z,99.90
2022-10-30T02:02:57.075Z,99.90
2022-10-30T02:05:39.578Z,99.90
2022-10-30T02:08:07.964Z,99.90
2022-10-30T02:10:42.246Z,99.90
2022-10-30T02:13:10.417Z,99.90
2022-10-30T02:15:39.309Z,99.90
2022-10-30T02:18:07.395Z,99.90
2022-10-30T02:20:37.397Z,99.90
2022-10-30T02:23:06.841Z,99.90
2022-10-30T02:25:36.459Z,99.90
2022-10-30T02:28:04.711Z,99.90
2022-10-30T02:30:32.871Z,99.90
2022-10-30T02:33:03.061Z,99.90
2022-10-30T02:35:31.799Z,99.90
2022-10-30T02:38:01.336Z,99.90
2022-10-30T02:40:29.597Z,99.90
2022-10-30T02:42:58.153Z,99.90
2022-10-30T02:45:26.146Z,99.90
2022-10-30T02:47:54.208Z,99.90
2022-10-30T02:50:22.848Z,99.90
2022-10-30T02:52:52.835Z,99.90
2022-10-30T02:55:22.238Z,99.90
2022-10-30T02:57:50.464Z,99.90
2022-10-30T03:00:19.195Z,99.90
2022-10-30T03:02:47.380Z,99.90
2022-10-30T03:05:15.507Z,99.90
2022-10-30T03:07:43.433Z,99.90
2022-10-30T03:10:11.432Z,99.90
2022-10-30T03:12:40.742Z,99.90
2022-10-30T03:15:10.318Z,99.90
2022-10-30T03:17:38.474Z,99.90
2022-10-30T03:20:07.503Z,99.90
2022-10-30T03:22:35.508Z,99.90
2022-10-30T03:25:03.636Z,99.90
2022-10-30T03:27:31.616Z,99.90
2022-10-30T03:30:01.575Z,99.90
2022-10-30T03:32:30.605Z,99.90
2022-10-30T03:35:01.857Z,99.90
2022-10-30T03:37:29.861Z,99.90
2022-10-30T03:39:58.053Z,99.90
2022-10-30T03:42:26.095Z,99.90
2022-10-30T03:44:54.051Z,99.90
2022-10-30T03:47:23.429Z,99.90
2022-10-30T03:49:51.425Z,99.90
2022-10-30T03:52:23.144Z,99.90
2022-10-30T03:54:53.065Z,99.90
2022-10-30T03:57:21.972Z,99.90
2022-10-30T04:00:07.365Z,99.90
2022-10-30T04:02:57.715Z,99.90
2022-10-30T04:05:28.877Z,99.90
2022-10-30T04:08:00.210Z,99.90
2022-10-30T04:10:30.438Z,99.90
2022-10-30T04:13:02.565Z,99.90
2022-10-30T04:15:31.035Z,99.90
2022-10-30T04:18:01.720Z,99.90
2022-10-30T04:20:31.377Z,99.90
2022-10-30T04:23:00.517Z,99.90
2022-10-30T04:25:30.128Z,99.90
2022-10-30T04:28:01.196Z,99.90
2022-10-30T04:30:33.994Z,99.90
2022-10-30T04:33:05.678Z,99.90
2022-10-30T04:35:37.531Z,99.90
2022-10-30T04:38:11.089Z,99.90
2022-10-30T04:40:40.778Z,99.90
2022-10-30T04:43:10.875Z,99.90
2022-10-30T04:45:40.383Z,99.90
2022-10-30T04:48:14.390Z,99.90
2022-10-30T04:50:44.318Z,99.90
2022-10-30T04:53:17.809Z,99.90
2022-10-30T04:55:48.718Z,99.90
2022-10-30T04:58:17.754Z,99.90
2022-10-30T05:00:50.254Z,99.90
2022-10-30T05:03:23.212Z,99.90
2022-10-30T05:05:59.117Z,99.90
2022-10-30T05:08:27.259Z,99.90
2022-10-30T05:10:55.827Z,99.90
2022-10-30T05:13:24.353Z,99.90
2022-10-30T05:15:55.562Z,99.90
2022-10-30T05:18:25.787Z,99.90
2022-10-30T05:20:54.189Z,99.90
2022-10-30T05:23:23.951Z,99.90
2022-10-30T05:25:52.819Z,99.90
2022-10-30T05:28:21.695Z,99.90
2022-10-30T05:30:56.000Z,99.90
2022-10-30T05:33:48.235Z,99.90
2022-10-30T05:36:16.241Z,99.90
2022-10-30T05:38:46.566Z,99.90
2022-10-30T05:41:22.373Z,99.90
2022-10-30T05:43:50.380Z,99.90
2022-10-30T05:46:18.595Z,99.90
2022-10-30T05:48:49.109Z,99.90
2022-10-30T05:51:17.210Z,99.90
2022-10-30T05:53:52.103Z,99.90
2022-10-30T05:56:22.653Z,99.90
2022-10-30T05:58:51.264Z,99.90
2022-10-30T06:01:19.399Z,99.90
2022-10-30T06:03:53.605Z,99.90
2022-10-30T06:06:21.911Z,99.90
2022-10-30T06:08:58.857Z,99.90
2022-10-30T06:11:37.155Z,99.90
2022-10-30T06:14:05.295Z,99.90
2022-10-30T06:16:47.186Z,99.90
2022-10-30T06:19:36.771Z,99.90
2022-10-30T06:22:27.825Z,99.90
2022-10-30T06:25:01.573Z,99.90
2022-10-30T06:27:48.173Z,99.90
2022-10-30T06:30:16.207Z,99.90
2022-10-30T06:32:44.396Z,99.90
2022-10-30T06:35:13.754Z,99.90
2022-10-30T06:37:47.391Z,99.90
2022-10-30T06:40:17.376Z,99.90
2022-10-30T06:43:03.184Z,99.90
2022-10-30T06:45:37.469Z,99.90
2022-10-30T06:48:05.789Z,99.90
2022-10-30T06:50:40.999Z,99.90
2022-10-30T06:53:09.415Z,99.90
2022-10-30T06:55:38.511Z,99.90
2022-10-30T06:58:42.196Z,99.90
2022-10-30T07:01:13.961Z,99.90
2022-10-30T07:04:00.751Z,99.90
2022-10-30T07:06:30.875Z,99.90
2022-10-30T07:09:00.402Z,99.90
2022-10-30T07:11:28.575Z,99.90
2022-10-30T07:14:18.666Z,99.90
2022-10-30T07:17:09.602Z,99.90
2022-10-30T07:19:38.678Z,99.90
2022-10-30T07:22:08.837Z,99.90
2022-10-30T07:24:39.696Z,99.90
2022-10-30T07:27:19.268Z,99.90
2022-10-30T07:29:54.814Z,99.90
2022-10-30T07:32:43.310Z,99.90
2022-10-30T07:35:15.818Z,99.90
2022-10-30T07:38:06.897Z,99.90
2022-10-30T07:40:45.119Z,99.90
2022-10-30T07:43:29.664Z,99.90
2022-10-30T07:46:23.442Z,99.90
2022-10-30T07:49:09.948Z,99.90
2022-10-30T07:51:43.204Z,99.90
2022-10-30T07:54:14.860Z,99.90
2022-10-30T07:56:43.578Z,99.90
2022-10-30T07:59:20.706Z,99.90
2022-10-30T08:02:07.518Z,99.90
2022-10-30T08:04:50.934Z,99.90
2022-10-30T08:07:49.766Z,99.80
2022-10-30T08:10:19.294Z,97.50
2022-10-30T08:12:48.228Z,96.90
2022-10-30T08:15:16.379Z,95.90
2022-10-30T08:17:45.528Z,95.80
2022-10-30T08:20:16.376Z,95.40
2022-10-30T08:22:48.463Z,93.60
2022-10-30T08:25:17.977Z,91.40
2022-10-30T08:27:56.201Z,90.70
2022-10-30T08:30:27.928Z,87.20
2022-10-30T08:33:01.600Z,84.80
2022-10-30T08:35:50.408Z,83.20
2022-10-30T08:38:19.416Z,81.00
2022-10-30T08:40:55.482Z,79.40
2022-10-30T08:43:26.606Z,75.70
2022-10-30T08:45:54.677Z,74.30
2022-10-30T08:48:23.416Z,72.30
2022-10-30T08:50:51.717Z,72.50
2022-10-30T08:53:28.322Z,70.00
2022-10-30T08:55:56.730Z,71.50
2022-10-30T08:58:35.697Z,71.90
2022-10-30T09:01:04.177Z,69.70
2022-10-30T09:04:07.840Z,69.40
2022-10-30T09:06:55.729Z,68.20
2022-10-30T09:09:23.717Z,66.40
2022-10-30T09:11:54.845Z,67.80
2022-10-30T09:14:25.464Z,66.70
2022-10-30T09:16:55.106Z,65.70
2022-10-30T09:19:24.310Z,63.00
2022-10-30T09:21:52.684Z,64.60
2022-10-30T09:24:21.978Z,63.00
2022-10-30T09:26:49.911Z,61.70
2022-10-30T09:29:29.325Z,59.40
2022-10-30T09:32:00.486Z,57.80
2022-10-30T09:34:32.100Z,59.20
2022-10-30T09:37:05.447Z,56.40
2022-10-30T09:39:37.494Z,56.30
2022-10-30T09:42:21.519Z,53.90
2022-10-30T09:48:20.474Z,53.50
2022-10-30T09:51:09.561Z,55.70
2022-10-30T09:53:50.315Z,53.50
2022-10-30T09:56:32.763Z,54.10
2022-10-30T09:59:11.346Z,54.70
2022-10-30T10:01:48.963Z,55.50
2022-10-30T10:04:27.004Z,56.90
2022-10-30T10:07:08.565Z,54.60
2022-10-30T10:09:53.530Z,54.00
2022-10-30T10:12:43.735Z,54.80
2022-10-30T10:15:17.867Z,51.90
2022-10-30T10:17:47.746Z,52.00
2022-10-30T10:20:25.577Z,52.40
2022-10-30T10:22:53.617Z,52.10
2022-10-30T10:25:22.416Z,54.20
2022-10-30T10:28:00.820Z,54.60
2022-10-30T10:30:35.544Z,53.90
2022-10-30T10:33:19.731Z,55.30
2022-10-30T10:35:58.502Z,53.10
2022-10-30T10:38:40.287Z,51.70
2022-10-30T10:41:19.742Z,52.00
2022-10-30T10:44:06.450Z,51.50
2022-10-30T10:46:52.516Z,51.40
2022-10-30T10:49:39.016Z,51.70
2022-10-30T10:52:12.886Z,50.30
2022-10-30T10:54:44.685Z,51.80
2022-10-30T10:57:18.490Z,51.60
2022-10-30T10:59:50.414Z,51.10
2022-10-30T11:02:35.747Z,52.30
2022-10-30T11:05:13.651Z,51.80
2022-10-30T11:07:48.477Z,51.90
2022-10-30T11:10:18.602Z,54.30
2022-10-30T11:12:46.656Z,52.20
2022-10-30T11:15:24.868Z,53.20
2022-10-30T11:17:59.836Z,53.00
2022-10-30T11:20:37.413Z,52.60
2022-10-30T11:23:25.656Z,54.60
2022-10-30T11:25:53.614Z,55.20
2022-10-30T11:28:37.795Z,55.00
2022-10-30T11:31:23.710Z,55.10
2022-10-30T11:33:52.398Z,55.10
2022-10-30T11:36:24.493Z,54.90
2022-10-30T11:38:53.088Z,55.80
2022-10-30T11:41:21.794Z,54.80
2022-10-30T11:43:50.574Z,54.00
2022-10-30T11:46:24.401Z,54.10
2022-10-30T11:48:55.009Z,51.80
2022-10-30T11:51:40.518Z,51.90
2022-10-30T11:54:18.884Z,54.00
2022-10-30T11:56:49.278Z,57.20
2022-10-30T11:59:20.569Z,55.50
2022-10-30T12:02:00.417Z,55.10
2022-10-30T12:04:32.569Z,55.50
2022-10-30T12:07:21.467Z,57.50
2022-10-30T12:09:49.775Z,58.70
2022-10-30T12:12:24.329Z,58.00
2022-10-30T12:14:53.932Z,57.00
2022-10-30T12:17:23.549Z,57.60
2022-10-30T12:19:54.554Z,58.70
2022-10-30T12:22:30.319Z,58.70
2022-10-30T12:25:00.026Z,59.60
2022-10-30T12:27:28.486Z,59.20
2022-10-30T12:30:08.976Z,59.80
2022-10-30T12:32:46.802Z,61.90
2022-10-30T12:35:28.381Z,60.60
2022-10-30T12:38:00.217Z,60.90
2022-10-30T12:40:32.199Z,62.30
2022-10-30T12:43:06.112Z,61.50
2022-10-30T12:45:40.005Z,62.50
2022-10-30T12:48:16.969Z,65.80
2022-10-30T12:50:55.409Z,64.60
2022-10-30T12:53:30.235Z,64.80
2022-10-30T12:56:02.826Z,65.00
2022-10-30T12:58:37.477Z,65.40
2022-10-30T13:01:14.197Z,65.30
2022-10-30T13:03:47.388Z,67.40
2022-10-30T13:06:19.986Z,66.70
2022-10-30T13:09:03.759Z,67.40
2022-10-30T13:11:40.179Z,69.60
2022-10-30T13:14:15.852Z,72.30
2022-10-30T13:16:43.857Z,70.50
2022-10-30T13:19:13.763Z,70.70
2022-10-30T13:21:48.995Z,73.00
2022-10-30T13:24:23.711Z,69.50
2022-10-30T13:26:56.693Z,71.60
2022-10-30T13:29:30.354Z,74.50
2022-10-30T13:32:12.773Z,71.90
2022-10-30T13:34:49.268Z,72.00
2022-10-30T13:37:23.823Z,73.20
2022-10-30T13:40:14.565Z,73.10
2022-10-30T13:42:58.076Z,71.60
2022-10-30T13:45:39.153Z,71.70
2022-10-30T13:48:16.236Z,72.90
2022-10-30T13:51:04.492Z,71.00
2022-10-30T13:53:36.064Z,72.00
2022-10-30T13:56:05.888Z,72.40
2022-10-30T13:58:39.486Z,72.60
2022-10-30T14:01:10.538Z,72.80
2022-10-30T14:03:49.625Z,73.70
2022-10-30T14:06:33.554Z,74.20
2022-10-30T14:09:09.850Z,74.60
2022-10-30T14:11:39.196Z,74.70
2022-10-30T14:14:30.287Z,76.20
2022-10-30T14:17:14.252Z,76.80
2022-10-30T14:20:15.813Z,79.40
2022-10-30T14:22:43.790Z,78.30
2022-10-30T14:25:15.219Z,77.70
2022-10-30T14:27:44.684Z,78.50
2022-10-30T14:30:20.215Z,79.30
2022-10-30T14:32:52.439Z,79.90
2022-10-30T14:35:41.184Z,80.80
2022-10-30T14:38:26.912Z,81.00
2022-10-30T14:41:39.330Z,81.40
2022-10-30T14:44:20.949Z,81.90
2022-10-30T14:47:04.930Z,82.40
2022-10-30T14:49:43.802Z,82.90
2022-10-30T14:52:33.158Z,82.80
2022-10-30T14:55:19.514Z,83.10
2022-10-30T14:57:52.098Z,83.60
2022-10-30T15:00:41.718Z,85.40
2022-10-30T15:03:20.103Z,84.80
2022-10-30T15:05:53.592Z,85.40
2022-10-30T15:08:39.248Z,86.50
2022-10-30T15:11:32.156Z,85.30
2022-10-30T15:14:03.791Z,85.60
2022-10-30T15:16:38.030Z,85.40
2022-10-30T15:19:08.618Z,85.60
2022-10-30T15:21:43.497Z,85.30
2022-10-30T15:24:16.759Z,85.40
2022-10-30T15:26:46.577Z,85.90
2022-10-30T15:29:19.336Z,89.50
2022-10-30T15:31:59.305Z,89.10
2022-10-30T15:34:29.431Z,88.10
2022-10-30T15:36:57.974Z,88.10
2022-10-30T15:39:26.828Z,89.70
2022-10-30T15:41:57.754Z,89.50
2022-10-30T15:44:29.452Z,89.80
2022-10-30T15:47:01.781Z,90.30
2022-10-30T15:49:33.241Z,90.70
2022-10-30T15:52:04.193Z,90.80
2022-10-30T15:54:34.754Z,91.40
2022-10-30T15:57:42.869Z,91.90
2022-10-30T15:59:53.692Z,92.90
2022-10-30T16:02:26.689Z,93.70
2022-10-30T16:04:55.483Z,94.80
2022-10-30T16:07:25.240Z,96.30
2022-10-30T16:09:54.758Z,97.60
2022-10-30T16:12:25.951Z,97.90
2022-10-30T16:14:54.665Z,99.10
2022-10-30T16:17:25.142Z,99.90
2022-10-30T16:19:55.478Z,99.90
2022-10-30T16:22:28.169Z,99.90
2022-10-30T16:24:57.826Z,99.90
2022-10-30T16:27:27.473Z,99.90
2022-10-30T16:29:59.109Z,99.90
2022-10-30T16:32:31.501Z,99.90
2022-10-30T16:35:01.348Z,99.90
2022-10-30T16:37:34.865Z,99.90
2022-10-30T16:40:08.142Z,99.90
2022-10-30T16:42:36.172Z,99.90
2022-10-30T16:45:45.442Z,99.90
2022-10-30T16:48:21.163Z,99.90
2022-10-30T16:50:50.361Z,99.90
2022-10-30T16:53:20.645Z,99.90
2022-10-30T16:55:48.804Z,99.90
2022-10-30T16:58:17.923Z,99.90
2022-10-30T17:00:51.294Z,99.90
2022-10-30T17:03:23.791Z,99.90
2022-10-30T17:05:59.329Z,99.90
2022-10-30T17:08:34.145Z,99.90
2022-10-30T17:11:03.854Z,99.90
2022-10-30T17:13:34.436Z,99.90
2022-10-30T17:16:21.758Z,99.90
2022-10-30T17:18:53.702Z,99.90
2022-10-30T17:21:24.429Z,99.90
2022-10-30T17:23:55.048Z,99.90
2022-10-30T17:26:23.505Z,99.90
2022-10-30T17:28:51.514Z,99.90
2022-10-30T17:31:42.995Z,99.90
2022-10-30T17:34:18.094Z,99.90
2022-10-30T17:36:47.033Z,99.90
2022-10-30T17:39:15.638Z,99.90
2022-10-30T17:41:44.194Z,99.90
2022-10-30T17:44:24.042Z,99.90
2022-10-30T17:46:52.784Z,99.90
2022-10-30T17:49:26.315Z,99.90
2022-10-30T17:51:54.567Z,99.90
2022-10-30T17:54:22.796Z,99.90
2022-10-30T17:56:51.079Z,99.90
2022-10-30T17:59:19.160Z,99.90
2022-10-30T18:01:48.944Z,99.90
2022-10-30T18:04:21.113Z,99.90
2022-10-30T18:06:51.138Z,99.90
2022-10-30T18:09:19.196Z,99.90
2022-10-30T18:11:47.153Z,99.90
2022-10-30T18:14:15.059Z,99.90
2022-10-30T18:16:43.001Z,99.90
2022-10-30T18:19:12.118Z,99.90
2022-10-30T18:21:40.499Z,99.90
2022-10-30T18:24:14.551Z,99.90
2022-10-30T18:26:43.202Z,99.90
2022-10-30T18:29:12.119Z,99.90
2022-10-30T18:31:40.937Z,99.90
2022-10-30T18:34:16.073Z,99.90
2022-10-30T18:36:44.526Z,99.90
2022-10-30T18:39:13.828Z,99.90
2022-10-30T18:41:44.120Z,99.90
2022-10-30T18:44:16.033Z,99.90
2022-10-30T18:46:44.305Z,99.90
2022-10-30T18:49:12.721Z,99.90
2022-10-30T18:51:41.040Z,99.90
2022-10-30T18:54:15.732Z,99.90
2022-10-30T18:56:44.175Z,99.90
2022-10-30T18:59:12.257Z,99.90
2022-10-30T19:01:40.517Z,99.90
2022-10-30T19:04:10.809Z,99.90
2022-10-30T19:06:39.275Z,99.90
2022-10-30T19:09:07.374Z,99.90
2022-10-30T19:11:39.415Z,99.90
2022-10-30T19:14:12.149Z,99.90
2022-10-30T19:16:40.143Z,99.90
2022-10-30T19:19:08.635Z,99.90
2022-10-30T19:21:36.961Z,99.90
2022-10-30T19:24:13.113Z,99.90
2022-10-30T19:26:42.466Z,99.90
2022-10-30T19:29:11.003Z,99.90
2022-10-30T19:31:39.056Z,99.90
2022-10-30T19:34:06.982Z,99.90
2022-10-30T19:36:36.910Z,99.90
2022-10-30T19:39:09.237Z,99.90
2022-10-30T19:41:38.603Z,99.90
2022-10-30T19:44:08.082Z,99.90
2022-10-30T19:46:36.917Z,99.90
2022-10-30T19:49:15.347Z,99.90
2022-10-30T19:51:43.369Z,99.90
2022-10-30T19:54:11.342Z,99.90
2022-10-30T19:56:39.338Z,99.90
2022-10-30T19:59:10.527Z,99.90
2022-10-30T20:01:38.719Z,99.90
2022-10-30T20:04:06.820Z,99.90
2022-10-30T20:06:34.779Z,99.90
2022-10-30T20:09:02.876Z,99.90
2022-10-30T20:11:31.876Z,99.90
2022-10-30T20:13:59.828Z,99.90
2022-10-30T20:16:31.709Z,99.90
2022-10-30T20:18:59.660Z,99.90
2022-10-30T20:21:28.793Z,99.90
2022-10-30T20:23:56.708Z,99.90
2022-10-30T20:26:30.699Z,99.90
2022-10-30T20:29:00.483Z,99.90
2022-10-30T20:31:29.787Z,99.90
2022-10-30T20:33:57.771Z,99.90
2022-10-30T20:36:26.070Z,99.90
2022-10-30T20:38:54.234Z,99.90
2022-10-30T20:41:24.268Z,99.90
2022-10-30T20:43:52.884Z,99.90
2022-10-30T20:46:21.257Z,99.90
2022-10-30T20:48:50.837Z,99.90
2022-10-30T20:51:19.302Z,99.90
2022-10-30T20:53:47.294Z,99.90
2022-10-30T20:56:16.810Z,99.90
2022-10-30T20:58:44.785Z,99.90
2022-10-30T21:01:13.971Z,99.90
2022-10-30T21:03:42.068Z,99.90
2022-10-30T21:06:13.792Z,99.90
2022-10-30T21:08:41.750Z,99.90
2022-10-30T21:11:09.730Z,99.90
2022-10-30T21:13:38.122Z,99.90
2022-10-30T21:16:09.417Z,99.90
2022-10-30T21:18:37.413Z,99.90
2022-10-30T21:21:07.833Z,99.90
2022-10-30T21:23:37.225Z,99.90
2022-10-30T21:26:07.541Z,99.90
2022-10-30T21:28:35.785Z,99.90
2022-10-30T21:31:04.673Z,99.90
2022-10-30T21:33:32.897Z,99.90
2022-10-30T21:36:10.678Z,99.90
2022-10-30T21:38:43.122Z,99.90
2022-10-30T21:41:12.164Z,99.90
2022-10-30T21:43:42.044Z,99.90
2022-10-30T21:46:11.085Z,99.90
2022-10-30T21:48:39.278Z,99.90
2022-10-30T21:51:09.588Z,99.90
2022-10-30T21:53:37.625Z,99.90
2022-10-30T21:56:09.950Z,99.90
2022-10-30T21:58:37.999Z,99.90
2022-10-30T22:01:06.906Z,99.90
2022-10-30T22:03:35.171Z,99.90
2022-10-30T22:06:07.607Z,99.90
2022-10-30T22:08:35.956Z,99.90
2022-10-30T22:11:05.625Z,99.90
2022-10-30T22:13:35.888Z,99.90
2022-10-30T22:16:05.383Z,99.90
2022-10-30T22:18:33.801Z,99.90
2022-10-30T22:21:02.583Z,99.90
2022-10-30T22:23:30.846Z,99.90
2022-10-30T22:26:00.446Z,99.90
2022-10-30T22:28:30.071Z,99.90
2022-10-30T22:31:04.166Z,99.90
2022-10-30T22:33:33.414Z,99.90
2022-10-30T22:36:05.877Z,99.90
2022-10-30T22:38:34.357Z,99.90
2022-10-30T22:41:09.807Z,99.90
2022-10-30T22:43:37.859Z,99.90
2022-10-30T22:46:07.428Z,99.90
2022-10-30T22:48:35.498Z,99.90
2022-10-30T22:51:05.516Z,99.90
2022-10-30T22:53:34.100Z,99.90
2022-10-30T22:56:11.402Z,99.90
2022-10-30T22:58:39.437Z,99.90
2022-10-30T23:01:11.742Z,99.90
2022-10-30T23:03:39.857Z,99.90
2022-10-30T23:06:08.510Z,99.90
2022-10-30T23:08:36.755Z,99.90
2022-10-30T23:11:05.861Z,99.90
2022-10-30T23:13:33.864Z,99.90
2022-10-30T23:16:02.831Z,99.90
2022-10-30T23:18:32.864Z,99.90
2022-10-30T23:21:02.862Z,99.90
2022-10-30T23:23:30.845Z,99.90
2022-10-30T23:26:03.610Z,99.90
2022-10-30T23:28:31.577Z,99.90
2022-10-30T23:30:59.541Z,99.90
2022-10-30T23:33:27.516Z,99.90
2022-10-30T23:36:00.747Z,99.90
2022-10-30T23:38:29.448Z,99.90
2022-10-30T23:40:57.438Z,99.90
2022-10-30T23:43:25.655Z,99.90
2022-10-30T23:45:53.607Z,99.90
2022-10-30T23:48:21.659Z,99.90
2022-10-30T23:50:49.638Z,99.90
2022-10-30T23:53:19.018Z,99.90
2022-10-30T23:55:53.693Z,99.90
2022-10-30T23:58:21.936Z,99.90
